sensor_id;sensor_type;location;lat;lon;timestamp;pressure;altitude;pressure_sealevel;temperature;humidity
38786;BME280;24535;45.508;12.252;2023-01-28T00:00:08;101611.78;;;7.69;49.09
38786;BME280;24535;45.508;12.252;2023-01-28T00:02:35;101615.13;;;7.73;49.02
38786;BME280;24535;45.508;12.252;2023-01-28T00:05:00;101611.56;;;7.74;49.44
38786;BME280;24535;45.508;12.252;2023-01-28T00:07:26;101614.94;;;7.77;49.18
38786;BME280;24535;45.508;12.252;2023-01-28T00:09:52;101602.53;;;7.81;49.28
38786;BME280;24535;45.508;12.252;2023-01-28T00:12:17;101597.25;;;7.82;49.01
38786;BME280;24535;45.508;12.252;2023-01-28T00:14:43;101599.72;;;7.85;48.94
38786;BME280;24535;45.508;12.252;2023-01-28T00:17:10;101592.91;;;7.81;48.75
38786;BME280;24535;45.508;12.252;2023-01-28T00:19:36;101593.75;;;7.82;48.69
38786;BME280;24535;45.508;12.252;2023-01-28T00:22:02;101593.75;;;7.82;48.90
38786;BME280;24535;45.508;12.252;2023-01-28T00:24:31;101594.63;;;7.82;48.72
38786;BME280;24535;45.508;12.252;2023-01-28T00:26:57;101592.06;;;7.81;48.34
38786;BME280;24535;45.508;12.252;2023-01-28T00:29:23;101601.63;;;7.82;48.46
38786;BME280;24535;45.508;12.252;2023-01-28T00:31:48;101596.44;;;7.80;48.29
38786;BME280;24535;45.508;12.252;2023-01-28T00:34:20;101593.81;;;7.80;49.19
38786;BME280;24535;45.508;12.252;2023-01-28T00:36:45;101595.47;;;7.83;48.35
38786;BME280;24535;45.508;12.252;2023-01-28T00:39:22;101591.22;;;7.80;48.52
38786;BME280;24535;45.508;12.252;2023-01-28T00:41:49;101599.00;;;7.82;47.85
38786;BME280;24535;45.508;12.252;2023-01-28T00:44:14;101593.91;;;7.79;48.59
38786;BME280;24535;45.508;12.252;2023-01-28T00:46:40;101590.34;;;7.80;48.82
38786;BME280;24535;45.508;12.252;2023-01-28T00:49:06;101593.94;;;7.77;48.13
38786;BME280;24535;45.508;12.252;2023-01-28T00:51:35;101593.09;;;7.77;48.57
38786;BME280;24535;45.508;12.252;2023-01-28T00:54:01;101587.84;;;7.77;49.03
38786;BME280;24535;45.508;12.252;2023-01-28T00:56:26;101594.88;;;7.76;48.34
38786;BME280;24535;45.508;12.252;2023-01-28T00:58:52;101594.13;;;7.73;49.14
38786;BME280;24535;45.508;12.252;2023-01-28T01:01:23;101596.03;;;7.69;48.74
38786;BME280;24535;45.508;12.252;2023-01-28T01:03:49;101604.94;;;7.65;48.42
38786;BME280;24535;45.508;12.252;2023-01-28T01:06:23;101607.75;;;7.60;48.11
38786;BME280;24535;45.508;12.252;2023-01-28T01:08:49;101609.72;;;7.55;47.90
38786;BME280;24535;45.508;12.252;2023-01-28T01:11:15;101608.13;;;7.51;48.02
38786;BME280;24535;45.508;12.252;2023-01-28T01:13:41;101608.34;;;7.45;48.50
38786;BME280;24535;45.508;12.252;2023-01-28T01:16:10;101612.03;;;7.41;48.27
38786;BME280;24535;45.508;12.252;2023-01-28T01:18:36;101612.09;;;7.39;48.40
38786;BME280;24535;45.508;12.252;2023-01-28T01:21:11;101615.69;;;7.37;48.42
38786;BME280;24535;45.508;12.252;2023-01-28T01:23:40;101607.16;;;7.32;48.70
38786;BME280;24535;45.508;12.252;2023-01-28T01:26:06;101614.28;;;7.28;48.55
38786;BME280;24535;45.508;12.252;2023-01-28T01:28:35;101624.09;;;7.23;48.91
38786;BME280;24535;45.508;12.252;2023-01-28T01:31:05;101621.66;;;7.18;49.03
38786;BME280;24535;45.508;12.252;2023-01-28T01:33:31;101620.06;;;7.14;48.26
38786;BME280;24535;45.508;12.252;2023-01-28T01:35:58;101621.09;;;7.10;48.85
38786;BME280;24535;45.508;12.252;2023-01-28T01:38:24;101623.81;;;7.07;48.69
38786;BME280;24535;45.508;12.252;2023-01-28T01:40:49;101634.53;;;7.01;48.78
38786;BME280;24535;45.508;12.252;2023-01-28T01:43:19;101628.59;;;6.96;48.93
38786;BME280;24535;45.508;12.252;2023-01-28T01:45:50;101631.34;;;6.93;49.25
38786;BME280;24535;45.508;12.252;2023-01-28T01:48:22;101628.03;;;6.88;49.43
38786;BME280;24535;45.508;12.252;2023-01-28T01:50:55;101629.91;;;6.84;49.25
38786;BME280;24535;45.508;12.252;2023-01-28T01:53:24;101630.94;;;6.80;49.45
38786;BME280;24535;45.508;12.252;2023-01-28T01:55:53;101633.78;;;6.74;49.79
38786;BME280;24535;45.508;12.252;2023-01-28T01:58:23;101629.66;;;6.68;49.74
38786;BME280;24535;45.508;12.252;2023-01-28T02:00:51;101631.50;;;6.65;49.20
38786;BME280;24535;45.508;12.252;2023-01-28T02:03:18;101628.16;;;6.61;49.60
38786;BME280;24535;45.508;12.252;2023-01-28T02:05:51;101627.47;;;6.56;49.82
38786;BME280;24535;45.508;12.252;2023-01-28T02:08:16;101631.06;;;6.52;50.08
38786;BME280;24535;45.508;12.252;2023-01-28T02:11:08;101624.25;;;6.48;51.08
38786;BME280;24535;45.508;12.252;2023-01-28T02:13:49;101627.66;;;6.50;50.51
38786;BME280;24535;45.508;12.252;2023-01-28T02:16:16;101631.25;;;6.48;50.19
38786;BME280;24535;45.508;12.252;2023-01-28T02:18:45;101635.72;;;6.44;50.44
38786;BME280;24535;45.508;12.252;2023-01-28T02:31:54;101637.91;;;6.31;50.43
38786;BME280;24535;45.508;12.252;2023-01-28T02:36:53;101639.09;;;6.23;50.22
38786;BME280;24535;45.508;12.252;2023-01-28T02:39:44;101635.72;;;6.19;50.41
38786;BME280;24535;45.508;12.252;2023-01-28T02:42:16;101637.66;;;6.14;50.81
38786;BME280;24535;45.508;12.252;2023-01-28T02:44:43;101646.44;;;6.11;50.61
38786;BME280;24535;45.508;12.252;2023-01-28T02:47:12;101643.09;;;6.08;50.93
38786;BME280;24535;45.508;12.252;2023-01-28T02:49:59;101647.56;;;6.04;50.64
38786;BME280;24535;45.508;12.252;2023-01-28T03:01:00;101647.81;;;5.97;50.54
38786;BME280;24535;45.508;12.252;2023-01-28T03:06:14;101641.75;;;5.96;50.98
38786;BME280;24535;45.508;12.252;2023-01-28T03:08:45;101645.22;;;5.97;51.19
38786;BME280;24535;45.508;12.252;2023-01-28T03:11:35;101644.41;;;5.94;51.23
38786;BME280;24535;45.508;12.252;2023-01-28T03:14:20;101648.78;;;5.94;51.81
38786;BME280;24535;45.508;12.252;2023-01-28T03:17:08;101661.84;;;5.94;50.88
38786;BME280;24535;45.508;12.252;2023-01-28T03:19:55;101662.75;;;5.93;50.58
38786;BME280;24535;45.508;12.252;2023-01-28T03:22:41;101658.38;;;5.93;50.90
38786;BME280;24535;45.508;12.252;2023-01-28T03:25:28;101664.47;;;5.94;50.77
38786;BME280;24535;45.508;12.252;2023-01-28T03:28:16;101665.38;;;5.93;51.05
38786;BME280;24535;45.508;12.252;2023-01-28T03:31:12;101665.38;;;5.93;50.95
38786;BME280;24535;45.508;12.252;2023-01-28T03:33:59;101663.63;;;5.93;50.77
38786;BME280;24535;45.508;12.252;2023-01-28T03:36:45;101667.13;;;5.92;50.80
38786;BME280;24535;45.508;12.252;2023-01-28T03:39:14;101672.38;;;5.92;50.97
38786;BME280;24535;45.508;12.252;2023-01-28T03:41:40;101669.75;;;5.92;51.02
38786;BME280;24535;45.508;12.252;2023-01-28T03:44:06;101676.63;;;5.95;50.99
38786;BME280;24535;45.508;12.252;2023-01-28T03:46:50;101669.66;;;5.96;51.07
38786;BME280;24535;45.508;12.252;2023-01-28T03:49:16;101665.28;;;5.96;50.95
38786;BME280;24535;45.508;12.252;2023-01-28T03:51:42;101671.38;;;5.97;51.15
38786;BME280;24535;45.508;12.252;2023-01-28T03:54:08;101669.59;;;5.97;50.77
38786;BME280;24535;45.508;12.252;2023-01-28T03:56:34;101680.00;;;5.99;50.99
38786;BME280;24535;45.508;12.252;2023-01-28T03:59:04;101670.38;;;5.99;50.84
38786;BME280;24535;45.508;12.252;2023-01-28T04:01:30;101672.97;;;6.01;50.88
38786;BME280;24535;45.508;12.252;2023-01-28T04:03:55;101672.97;;;6.01;51.03
38786;BME280;24535;45.508;12.252;2023-01-28T04:06:22;101680.72;;;6.04;51.45
38786;BME280;24535;45.508;12.252;2023-01-28T04:08:48;101673.72;;;6.04;51.14
38786;BME280;24535;45.508;12.252;2023-01-28T04:11:18;101674.63;;;6.03;50.73
38786;BME280;24535;45.508;12.252;2023-01-28T04:13:46;101677.19;;;6.05;50.90
38786;BME280;24535;45.508;12.252;2023-01-28T04:16:15;101682.44;;;6.05;50.63
38786;BME280;24535;45.508;12.252;2023-01-28T04:18:42;101680.75;;;6.02;51.04
38786;BME280;24535;45.508;12.252;2023-01-28T04:21:07;101691.22;;;6.02;50.88
38786;BME280;24535;45.508;12.252;2023-01-28T04:23:33;101685.19;;;6.00;50.55
38786;BME280;24535;45.508;12.252;2023-01-28T04:25:59;101684.38;;;5.98;51.36
38786;BME280;24535;45.508;12.252;2023-01-28T04:28:24;101688.69;;;5.99;50.94
38786;BME280;24535;45.508;12.252;2023-01-28T04:30:53;101699.22;;;5.98;50.95
38786;BME280;24535;45.508;12.252;2023-01-28T04:33:18;101700.16;;;5.95;51.05
38786;BME280;24535;45.508;12.252;2023-01-28T04:35:44;101696.75;;;5.93;51.67
38786;BME280;24535;45.508;12.252;2023-01-28T04:38:09;101700.22;;;5.93;50.94
38786;BME280;24535;45.508;12.252;2023-01-28T04:40:35;101698.50;;;5.91;50.52
38786;BME280;24535;45.508;12.252;2023-01-28T04:43:00;101709.88;;;5.90;51.07
38786;BME280;24535;45.508;12.252;2023-01-28T04:45:26;101707.34;;;5.88;51.22
38786;BME280;24535;45.508;12.252;2023-01-28T04:47:51;101706.56;;;5.85;51.21
38786;BME280;24535;45.508;12.252;2023-01-28T04:50:17;101706.66;;;5.82;51.69
38786;BME280;24535;45.508;12.252;2023-01-28T04:52:42;101709.28;;;5.82;51.65
38786;BME280;24535;45.508;12.252;2023-01-28T04:55:09;101710.19;;;5.81;51.43
38786;BME280;24535;45.508;12.252;2023-01-28T04:57:34;101718.97;;;5.78;51.59
38786;BME280;24535;45.508;12.252;2023-01-28T05:00:00;101717.34;;;5.74;51.55
38786;BME280;24535;45.508;12.252;2023-01-28T05:02:25;101719.19;;;5.70;51.58
38786;BME280;24535;45.508;12.252;2023-01-28T05:04:51;101720.19;;;5.66;51.92
38786;BME280;24535;45.508;12.252;2023-01-28T05:07:16;101730.78;;;5.63;52.11
38786;BME280;24535;45.508;12.252;2023-01-28T05:09:41;101734.38;;;5.59;51.87
38786;BME280;24535;45.508;12.252;2023-01-28T05:12:10;101741.44;;;5.56;52.01
38786;BME280;24535;45.508;12.252;2023-01-28T05:14:35;101746.81;;;5.51;52.76
38786;BME280;24535;45.508;12.252;2023-01-28T05:17:01;101745.06;;;5.52;52.35
38786;BME280;24535;45.508;12.252;2023-01-28T05:19:27;101742.53;;;5.49;52.81
38786;BME280;24535;45.508;12.252;2023-01-28T05:21:52;101747.81;;;5.47;52.38
38786;BME280;24535;45.508;12.252;2023-01-28T05:24:18;101753.03;;;5.47;52.73
38786;BME280;24535;45.508;12.252;2023-01-28T05:26:45;101747.75;;;5.49;52.62
38786;BME280;24535;45.508;12.252;2023-01-28T05:29:11;101752.16;;;5.46;52.44
38786;BME280;24535;45.508;12.252;2023-01-28T05:31:36;101754.88;;;5.43;52.72
38786;BME280;24535;45.508;12.252;2023-01-28T05:34:02;101756.66;;;5.41;53.12
38786;BME280;24535;45.508;12.252;2023-01-28T05:36:27;101758.44;;;5.41;52.82
38786;BME280;24535;45.508;12.252;2023-01-28T05:38:53;101758.50;;;5.38;52.98
38786;BME280;24535;45.508;12.252;2023-01-28T05:41:18;101762.88;;;5.37;52.76
38786;BME280;24535;45.508;12.252;2023-01-28T05:43:43;101770.72;;;5.37;53.04
38786;BME280;24535;45.508;12.252;2023-01-28T05:46:09;101774.28;;;5.35;53.14
38786;BME280;24535;45.508;12.252;2023-01-28T05:48:34;101778.69;;;5.33;53.30
38786;BME280;24535;45.508;12.252;2023-01-28T05:51:00;101773.53;;;5.31;53.08
38786;BME280;24535;45.508;12.252;2023-01-28T05:53:26;101785.75;;;5.29;53.31
38786;BME280;24535;45.508;12.252;2023-01-28T05:55:52;101784.94;;;5.27;53.16
38786;BME280;24535;45.508;12.252;2023-01-28T05:58:18;101780.59;;;5.28;53.07
38786;BME280;24535;45.508;12.252;2023-01-28T06:00:44;101784.97;;;5.26;53.51
38786;BME280;24535;45.508;12.252;2023-01-28T06:03:10;101792.81;;;5.26;53.33
38786;BME280;24535;45.508;12.252;2023-01-28T06:05:36;101785.09;;;5.21;53.88
38786;BME280;24535;45.508;12.252;2023-01-28T06:08:03;101788.56;;;5.21;53.81
38786;BME280;24535;45.508;12.252;2023-01-28T06:10:29;101791.25;;;5.18;53.36
38786;BME280;24535;45.508;12.252;2023-01-28T06:13:00;101795.69;;;5.16;53.77
38786;BME280;24535;45.508;12.252;2023-01-28T06:15:26;101800.06;;;5.14;53.79
38786;BME280;24535;45.508;12.252;2023-01-28T06:17:51;101805.41;;;5.11;54.04
38786;BME280;24535;45.508;12.252;2023-01-28T06:20:20;101808.94;;;5.09;54.20
38786;BME280;24535;45.508;12.252;2023-01-28T06:22:46;101804.75;;;5.03;54.53
38786;BME280;24535;45.508;12.252;2023-01-28T06:25:14;101801.38;;;4.98;54.41
38786;BME280;24535;45.508;12.252;2023-01-28T06:27:39;101805.81;;;4.96;54.30
38786;BME280;24535;45.508;12.252;2023-01-28T06:30:05;101811.09;;;4.93;54.37
38786;BME280;24535;45.508;12.252;2023-01-28T06:32:31;101809.41;;;4.92;54.37
38786;BME280;24535;45.508;12.252;2023-01-28T06:34:58;101808.56;;;4.90;54.55
38786;BME280;24535;45.508;12.252;2023-01-28T06:37:26;101819.06;;;4.88;54.49
38786;BME280;24535;45.508;12.252;2023-01-28T06:39:55;101823.44;;;4.88;54.73
38786;BME280;24535;45.508;12.252;2023-01-28T06:42:26;101824.34;;;4.87;54.99
38786;BME280;24535;45.508;12.252;2023-01-28T06:44:52;101828.72;;;4.85;54.62
38786;BME280;24535;45.508;12.252;2023-01-28T06:47:20;101825.25;;;4.84;54.81
38786;BME280;24535;45.508;12.252;2023-01-28T06:49:46;101814.88;;;4.83;54.74
38786;BME280;24535;45.508;12.252;2023-01-28T06:52:11;101823.63;;;4.80;54.57
38786;BME280;24535;45.508;12.252;2023-01-28T06:54:36;101828.75;;;4.83;54.65
38786;BME280;24535;45.508;12.252;2023-01-28T06:57:02;101841.69;;;4.88;54.79
38786;BME280;24535;45.508;12.252;2023-01-28T06:59:27;101849.47;;;4.89;54.53
38786;BME280;24535;45.508;12.252;2023-01-28T07:01:53;101845.94;;;4.92;55.07
38786;BME280;24535;45.508;12.252;2023-01-28T07:04:18;101838.97;;;4.92;54.75
38786;BME280;24535;45.508;12.252;2023-01-28T07:06:43;101847.63;;;4.94;54.89
38786;BME280;24535;45.508;12.252;2023-01-28T07:09:09;101849.34;;;4.95;55.14
38786;BME280;24535;45.508;12.252;2023-01-28T07:11:35;101847.63;;;4.94;55.17
38786;BME280;24535;45.508;12.252;2023-01-28T07:14:00;101845.09;;;4.91;55.11
38786;BME280;24535;45.508;12.252;2023-01-28T07:16:26;101854.63;;;4.92;55.27
38786;BME280;24535;45.508;12.252;2023-01-28T07:18:51;101862.47;;;4.92;55.00
38786;BME280;24535;45.508;12.252;2023-01-28T07:21:31;101865.03;;;4.94;54.91
38786;BME280;24535;45.508;12.252;2023-01-28T07:23:57;101870.25;;;4.94;54.93
38786;BME280;24535;45.508;12.252;2023-01-28T07:26:23;101871.97;;;4.95;54.91
38786;BME280;24535;45.508;12.252;2023-01-28T07:28:48;101864.94;;;4.97;54.81
38786;BME280;24535;45.508;12.252;2023-01-28T07:31:14;101865.81;;;4.97;54.93
38786;BME280;24535;45.508;12.252;2023-01-28T07:33:39;101866.66;;;4.98;54.81
38786;BME280;24535;45.508;12.252;2023-01-28T07:36:10;101866.66;;;4.98;54.93
38786;BME280;24535;45.508;12.252;2023-01-28T07:38:35;101872.72;;;5.00;54.83
38786;BME280;24535;45.508;12.252;2023-01-28T07:41:04;101873.50;;;5.04;54.68
38786;BME280;24535;45.508;12.252;2023-01-28T07:43:29;101877.75;;;5.06;54.56
38786;BME280;24535;45.508;12.252;2023-01-28T07:45:55;101880.34;;;5.08;54.86
38786;BME280;24535;45.508;12.252;2023-01-28T07:48:20;101880.34;;;5.08;54.46
38786;BME280;24535;45.508;12.252;2023-01-28T07:50:45;101889.00;;;5.10;54.62
38786;BME280;24535;45.508;12.252;2023-01-28T07:53:13;101890.63;;;5.14;54.42
38786;BME280;24535;45.508;12.252;2023-01-28T07:55:39;101891.41;;;5.17;54.70
38786;BME280;24535;45.508;12.252;2023-01-28T07:58:12;101889.56;;;5.23;54.03
38786;BME280;24535;45.508;12.252;2023-01-28T08:00:41;101883.44;;;5.24;54.29
38786;BME280;24535;45.508;12.252;2023-01-28T08:03:27;101880.75;;;5.27;54.53
38786;BME280;24535;45.508;12.252;2023-01-28T08:05:54;101886.66;;;5.33;54.30
38786;BME280;24535;45.508;12.252;2023-01-28T08:08:21;101890.75;;;5.43;54.38
38786;BME280;24535;45.508;12.252;2023-01-28T08:10:47;101890.63;;;5.46;54.54
38786;BME280;24535;45.508;12.252;2023-01-28T08:13:16;101885.31;;;5.51;54.21
38786;BME280;24535;45.508;12.252;2023-01-28T08:15:42;101887.03;;;5.51;53.50
38786;BME280;24535;45.508;12.252;2023-01-28T08:18:09;101884.34;;;5.54;53.69
38786;BME280;24535;45.508;12.252;2023-01-28T08:20:43;101893.97;;;5.53;53.81
38786;BME280;24535;45.508;12.252;2023-01-28T08:25:36;101901.72;;;5.56;53.94
38786;BME280;24535;45.508;12.252;2023-01-28T08:28:02;101907.72;;;5.60;53.43
38786;BME280;24535;45.508;12.252;2023-01-28T08:30:28;101904.16;;;5.62;53.91
38786;BME280;24535;45.508;12.252;2023-01-28T08:32:55;101908.41;;;5.66;53.85
38786;BME280;24535;45.508;12.252;2023-01-28T08:35:22;101901.38;;;5.68;53.83
38786;BME280;24535;45.508;12.252;2023-01-28T08:37:48;101908.25;;;5.73;53.90
38786;BME280;24535;45.508;12.252;2023-01-28T08:40:13;101914.25;;;5.75;53.44
38786;BME280;24535;45.508;12.252;2023-01-28T08:42:39;101919.41;;;5.78;53.68
38786;BME280;24535;45.508;12.252;2023-01-28T08:45:13;101922.75;;;5.83;53.83
38786;BME280;24535;45.508;12.252;2023-01-28T08:47:56;101927.81;;;5.89;53.97
38786;BME280;24535;45.508;12.252;2023-01-28T08:50:24;101931.25;;;5.92;53.82
38786;BME280;24535;45.508;12.252;2023-01-28T08:53:01;101929.19;;;6.04;53.83
38786;BME280;24535;45.508;12.252;2023-01-28T08:55:27;101930.56;;;6.15;54.25
38786;BME280;24535;45.508;12.252;2023-01-28T08:57:53;101923.19;;;6.30;54.06
38786;BME280;24535;45.508;12.252;2023-01-28T09:00:19;101929.66;;;6.46;53.49
38786;BME280;24535;45.508;12.252;2023-01-28T09:02:45;101926.53;;;6.63;53.88
38786;BME280;24535;45.508;12.252;2023-01-28T09:05:11;101930.53;;;6.75;53.80
38786;BME280;24535;45.508;12.252;2023-01-28T09:07:37;101925.56;;;6.93;53.48
38786;BME280;24535;45.508;12.252;2023-01-28T09:10:06;101931.00;;;7.14;52.92
38786;BME280;24535;45.508;12.252;2023-01-28T09:12:41;101926.19;;;7.27;52.68
38786;BME280;24535;45.508;12.252;2023-01-28T09:15:07;101937.97;;;7.40;52.64
38786;BME280;24535;45.508;12.252;2023-01-28T09:17:33;101934.72;;;7.58;52.94
38786;BME280;24535;45.508;12.252;2023-01-28T09:20:06;101936.69;;;7.77;51.31
38786;BME280;24535;45.508;12.252;2023-01-28T09:22:32;101940.63;;;7.88;51.29
38786;BME280;24535;45.508;12.252;2023-01-28T09:25:05;101933.31;;;7.98;51.26
38786;BME280;24535;45.508;12.252;2023-01-28T09:27:32;101940.81;;;8.07;51.20
38786;BME280;24535;45.508;12.252;2023-01-28T09:29:57;101934.38;;;8.16;50.58
38786;BME280;24535;45.508;12.252;2023-01-28T09:32:23;101935.72;;;8.26;50.89
38786;BME280;24535;45.508;12.252;2023-01-28T09:34:49;101934.41;;;8.39;50.87
38786;BME280;24535;45.508;12.252;2023-01-28T09:37:14;101937.41;;;8.52;50.98
38786;BME280;24535;45.508;12.252;2023-01-28T09:39:40;101942.84;;;8.70;50.94
38786;BME280;24535;45.508;12.252;2023-01-28T09:45:14;101943.31;;;9.01;50.43
38786;BME280;24535;45.508;12.252;2023-01-28T09:47:50;101941.78;;;9.18;50.09
38786;BME280;24535;45.508;12.252;2023-01-28T09:52:52;101943.81;;;9.52;50.05
38786;BME280;24535;45.508;12.252;2023-01-28T09:55:35;101940.53;;;9.67;47.12
38786;BME280;24535;45.508;12.252;2023-01-28T09:58:11;101945.25;;;9.79;49.32
38786;BME280;24535;45.508;12.252;2023-01-28T10:03:54;101939.59;;;9.88;48.23
38786;BME280;24535;45.508;12.252;2023-01-28T10:06:47;101947.13;;;9.96;49.10
38786;BME280;24535;45.508;12.252;2023-01-28T10:11:55;101950.00;;;10.10;48.06
38786;BME280;24535;45.508;12.252;2023-01-28T10:14:48;101941.97;;;10.13;45.39
38786;BME280;24535;45.508;12.252;2023-01-28T10:17:30;101941.81;;;10.16;46.63
38786;BME280;24535;45.508;12.252;2023-01-28T10:22:47;101938.13;;;10.21;45.79
38786;BME280;24535;45.508;12.252;2023-01-28T10:25:22;101945.56;;;10.31;46.72
38786;BME280;24535;45.508;12.252;2023-01-28T10:27:49;101932.81;;;10.41;47.49
38786;BME280;24535;45.508;12.252;2023-01-28T10:30:25;101930.38;;;10.55;47.41
38786;BME280;24535;45.508;12.252;2023-01-28T10:33:15;101927.97;;;10.70;46.67
38786;BME280;24535;45.508;12.252;2023-01-28T10:35:40;101919.47;;;10.82;47.22
38786;BME280;24535;45.508;12.252;2023-01-28T10:38:09;101911.84;;;10.93;46.82
38786;BME280;24535;45.508;12.252;2023-01-28T10:40:40;101916.75;;;11.01;45.89
38786;BME280;24535;45.508;12.252;2023-01-28T10:43:06;101908.31;;;11.11;46.46
38786;BME280;24535;45.508;12.252;2023-01-28T10:46:10;101895.50;;;11.21;44.84
38786;BME280;24535;45.508;12.252;2023-01-28T10:48:43;101900.34;;;11.30;46.13
38786;BME280;24535;45.508;12.252;2023-01-28T10:51:10;101889.34;;;11.38;45.29
38786;BME280;24535;45.508;12.252;2023-01-28T10:53:43;101895.09;;;11.46;45.25
38786;BME280;24535;45.508;12.252;2023-01-28T10:56:31;101888.06;;;11.47;42.87
38786;BME280;24535;45.508;12.252;2023-01-28T10:59:02;101886.41;;;11.44;43.30
38786;BME280;24535;45.508;12.252;2023-01-28T11:01:51;101881.22;;;11.43;42.81
38786;BME280;24535;45.508;12.252;2023-01-28T11:04:30;101889.16;;;11.43;43.41
38786;BME280;24535;45.508;12.252;2023-01-28T11:06:59;101881.38;;;11.39;43.47
38786;BME280;24535;45.508;12.252;2023-01-28T11:09:30;101886.66;;;11.39;43.59
38786;BME280;24535;45.508;12.252;2023-01-28T11:11:57;101881.38;;;11.39;43.49
38786;BME280;24535;45.508;12.252;2023-01-28T11:14:25;101877.72;;;11.42;43.83
38786;BME280;24535;45.508;12.252;2023-01-28T11:16:52;101883.00;;;11.42;43.58
38786;BME280;24535;45.508;12.252;2023-01-28T11:19:22;101877.03;;;11.38;42.68
38786;BME280;24535;45.508;12.252;2023-01-28T11:21:53;101873.53;;;11.38;42.56
38786;BME280;24535;45.508;12.252;2023-01-28T11:24:24;101869.19;;;11.37;42.99
38786;BME280;24535;45.508;12.252;2023-01-28T11:26:53;101870.88;;;11.38;42.33
38786;BME280;24535;45.508;12.252;2023-01-28T11:29:40;101868.09;;;11.41;43.21
38786;BME280;24535;45.508;12.252;2023-01-28T11:32:16;101867.09;;;11.44;43.04
38786;BME280;24535;45.508;12.252;2023-01-28T11:34:50;101867.84;;;11.46;42.57
38786;BME280;24535;45.508;12.252;2023-01-28T11:37:20;101871.28;;;11.48;42.33
38786;BME280;24535;45.508;12.252;2023-01-28T11:39:47;101866.94;;;11.47;42.20
38786;BME280;24535;45.508;12.252;2023-01-28T11:42:20;101866.94;;;11.47;42.89
38786;BME280;24535;45.508;12.252;2023-01-28T11:44:47;101857.53;;;11.41;42.75
38786;BME280;24535;45.508;12.252;2023-01-28T11:47:21;101865.41;;;11.43;41.65
38786;BME280;24535;45.508;12.252;2023-01-28T11:53:22;101859.88;;;11.30;42.12
38786;BME280;24535;45.508;12.252;2023-01-28T11:58:30;101852.47;;;11.21;41.67
38786;BME280;24535;45.508;12.252;2023-01-28T12:01:15;101842.28;;;11.13;41.59
38786;BME280;24535;45.508;12.252;2023-01-28T12:04:13;101845.97;;;11.10;41.09
38786;BME280;24535;45.508;12.252;2023-01-28T12:20:23;101830.13;;;11.10;43.20
38786;BME280;24535;45.508;12.252;2023-01-28T12:25:35;101830.34;;;11.06;43.17
38786;BME280;24535;45.508;12.252;2023-01-28T12:33:54;101834.50;;;10.94;41.43
38786;BME280;24535;45.508;12.252;2023-01-28T12:39:41;101834.78;;;10.88;43.01
38786;BME280;24535;45.508;12.252;2023-01-28T12:42:15;101822.53;;;10.87;43.43
38786;BME280;24535;45.508;12.252;2023-01-28T12:44:51;101826.13;;;10.86;43.08
38786;BME280;24535;45.508;12.252;2023-01-28T12:47:27;101830.50;;;10.85;43.59
38786;BME280;24535;45.508;12.252;2023-01-28T12:50:04;101820.16;;;10.82;43.00
38786;BME280;24535;45.508;12.252;2023-01-28T12:52:43;101817.41;;;10.84;44.18
38786;BME280;24535;45.508;12.252;2023-01-28T12:55:15;101821.06;;;10.81;43.02
38786;BME280;24535;45.508;12.252;2023-01-28T12:57:43;101817.66;;;10.79;42.57
38786;BME280;24535;45.508;12.252;2023-01-28T13:00:29;101821.28;;;10.77;42.36
38786;BME280;24535;45.508;12.252;2023-01-28T13:06:32;101814.66;;;10.70;42.48
38786;BME280;24535;45.508;12.252;2023-01-28T13:08:39;101825.09;;;10.71;42.50
38786;BME280;24535;45.508;12.252;2023-01-28T13:11:05;101826.03;;;10.70;42.17
38786;BME280;24535;45.508;12.252;2023-01-28T13:13:37;101824.31;;;10.69;42.59
38786;BME280;24535;45.508;12.252;2023-01-28T13:16:06;101813.94;;;10.66;42.13
38786;BME280;24535;45.508;12.252;2023-01-28T13:18:45;101820.81;;;10.69;42.62
38786;BME280;24535;45.508;12.252;2023-01-28T13:21:32;101829.53;;;10.71;42.98
38786;BME280;24535;45.508;12.252;2023-01-28T13:26:28;101820.75;;;10.70;42.41
38786;BME280;24535;45.508;12.252;2023-01-28T13:31:52;101828.59;;;10.72;41.54
38786;BME280;24535;45.508;12.252;2023-01-28T13:34:36;101820.91;;;10.67;41.60
38786;BME280;24535;45.508;12.252;2023-01-28T13:37:30;101827.13;;;10.66;41.75
38786;BME280;24535;45.508;12.252;2023-01-28T13:40:21;101826.41;;;10.62;41.27
38786;BME280;24535;45.508;12.252;2023-01-28T13:45:24;101831.97;;;10.56;41.45
38786;BME280;24535;45.508;12.252;2023-01-28T13:48:38;101834.78;;;10.53;41.34
38786;BME280;24535;45.508;12.252;2023-01-28T13:50:51;101836.63;;;10.51;41.43
38786;BME280;24535;45.508;12.252;2023-01-28T13:55:54;101841.19;;;10.48;41.09
38786;BME280;24535;45.508;12.252;2023-01-28T13:58:40;101849.31;;;10.43;40.92
38786;BME280;24535;45.508;12.252;2023-01-28T14:15:55;101858.22;;;10.22;41.11
38786;BME280;24535;45.508;12.252;2023-01-28T14:18:38;101858.97;;;10.24;41.18
38786;BME280;24535;45.508;12.252;2023-01-28T14:21:19;101872.97;;;10.26;41.21
38786;BME280;24535;45.508;12.252;2023-01-28T14:23:54;101865.09;;;10.24;41.29
38786;BME280;24535;45.508;12.252;2023-01-28T14:32:14;101871.38;;;10.22;41.16
38786;BME280;24535;45.508;12.252;2023-01-28T14:34:41;101866.13;;;10.22;41.38
38786;BME280;24535;45.508;12.252;2023-01-28T14:37:17;101873.22;;;10.20;41.17
38786;BME280;24535;45.508;12.252;2023-01-28T14:39:54;101875.94;;;10.18;41.57
38786;BME280;24535;45.508;12.252;2023-01-28T14:42:35;101870.88;;;10.13;41.50
38786;BME280;24535;45.508;12.252;2023-01-28T14:48:01;101874.41;;;10.12;41.52
38786;BME280;24535;45.508;12.252;2023-01-28T14:59:27;101882.19;;;10.15;42.33
38786;BME280;24535;45.508;12.252;2023-01-28T15:01:56;101885.66;;;10.16;42.38